createdAt,value
2023-04-15T00:00:33.000Z,9.12903225806452
2023-04-15T00:01:35.000Z,9.12903225806452
2023-04-15T00:02:38.000Z,9.12903225806452
2023-04-15T00:03:41.000Z,9.12903225806452
2023-04-15T00:04:43.000Z,9.12903225806452
2023-04-15T00:05:46.000Z,9.12903225806452
2023-04-15T00:06:49.000Z,9.12903225806452
2023-04-15T00:07:51.000Z,9.225806451612907
2023-04-15T00:08:54.000Z,9.12903225806452
2023-04-15T00:09:56.000Z,9.225806451612907
2023-04-15T00:10:58.000Z,9.225806451612907
2023-04-15T00:12:01.000Z,9.12903225806452
2023-04-15T00:13:03.000Z,9.225806451612907
2023-04-15T00:14:05.000Z,9.225806451612907
2023-04-15T00:15:08.000Z,9.225806451612907
2023-04-15T00:16:10.000Z,9.12903225806452
2023-04-15T00:17:12.000Z,9.225806451612907
2023-04-15T00:18:15.000Z,9.225806451612907
2023-04-15T00:19:17.000Z,9.225806451612907
2023-04-15T00:20:24.000Z,9.225806451612907
2023-04-15T00:21:27.000Z,9.225806451612907
2023-04-15T00:22:29.000Z,9.225806451612907
2023-04-15T00:23:31.000Z,9.225806451612907
2023-04-15T00:24:33.000Z,9.225806451612907
2023-04-15T00:25:36.000Z,9.225806451612907
2023-04-15T00:26:38.000Z,9.225806451612907
2023-04-15T00:27:41.000Z,9.322580645161295
2023-04-15T00:28:43.000Z,9.322580645161295
2023-04-15T00:29:45.000Z,9.322580645161295
2023-04-15T00:30:48.000Z,9.225806451612907
2023-04-15T00:31:50.000Z,9.225806451612907
2023-04-15T00:32:53.000Z,9.322580645161295
2023-04-15T00:33:55.000Z,9.225806451612907
2023-04-15T00:34:58.000Z,9.322580645161295
2023-04-15T00:36:00.000Z,9.322580645161295
2023-04-15T00:37:02.000Z,9.322580645161295
2023-04-15T00:38:05.000Z,9.419354838709683
2023-04-15T00:39:07.000Z,9.419354838709683
2023-04-15T00:40:09.000Z,9.322580645161295
2023-04-15T00:41:12.000Z,9.322580645161295
2023-04-15T00:42:14.000Z,9.419354838709683
2023-04-15T00:43:17.000Z,9.419354838709683
2023-04-15T00:44:19.000Z,9.419354838709683
2023-04-15T00:45:21.000Z,9.419354838709683
2023-04-15T00:46:24.000Z,9.419354838709683
2023-04-15T00:47:26.000Z,9.419354838709683
2023-04-15T00:48:29.000Z,9.419354838709683
2023-04-15T00:49:31.000Z,9.419354838709683
2023-04-15T00:50:33.000Z,9.419354838709683
2023-04-15T00:51:37.000Z,9.419354838709683
2023-04-15T00:52:39.000Z,9.516129032258071
2023-04-15T00:53:42.000Z,9.419354838709683
2023-04-15T00:54:44.000Z,9.516129032258071
2023-04-15T00:55:46.000Z,9.516129032258071
2023-04-15T00:56:49.000Z,9.419354838709683
2023-04-15T00:57:51.000Z,9.516129032258071
2023-04-15T00:58:54.000Z,9.516129032258071
2023-04-15T00:59:56.000Z,9.516129032258071
2023-04-15T01:00:58.000Z,9.612903225806459
2023-04-15T01:02:01.000Z,9.516129032258071
2023-04-15T01:03:03.000Z,9.516129032258071
2023-04-15T01:04:05.000Z,9.612903225806459
2023-04-15T01:05:08.000Z,9.612903225806459
2023-04-15T01:06:10.000Z,9.612903225806459
2023-04-15T01:07:13.000Z,9.612903225806459
2023-04-15T01:08:15.000Z,9.516129032258071
2023-04-15T01:09:18.000Z,9.612903225806459
2023-04-15T01:10:20.000Z,9.612903225806459
2023-04-15T01:11:22.000Z,9.612903225806459
2023-04-15T01:12:25.000Z,9.612903225806459
2023-04-15T01:13:27.000Z,9.612903225806459
2023-04-15T01:14:29.000Z,9.612903225806459
2023-04-15T01:15:32.000Z,9.709677419354847
2023-04-15T01:16:34.000Z,9.709677419354847
2023-04-15T01:17:37.000Z,9.709677419354847
2023-04-15T01:18:39.000Z,9.612903225806459
2023-04-15T01:19:41.000Z,9.709677419354847
2023-04-15T01:20:44.000Z,9.709677419354847
2023-04-15T01:21:46.000Z,9.709677419354847
2023-04-15T01:22:53.000Z,9.709677419354847
2023-04-15T01:23:56.000Z,9.709677419354847
2023-04-15T01:24:58.000Z,9.806451612903235
2023-04-15T01:26:01.000Z,9.709677419354847
2023-04-15T01:27:03.000Z,9.806451612903235
2023-04-15T01:28:05.000Z,9.806451612903235
2023-04-15T01:29:08.000Z,9.806451612903235
2023-04-15T01:30:10.000Z,9.709677419354847
2023-04-15T01:31:13.000Z,9.806451612903235
2023-04-15T01:32:15.000Z,9.903225806451623
2023-04-15T01:33:17.000Z,9.806451612903235
2023-04-15T01:34:20.000Z,9.806451612903235
2023-04-15T01:35:22.000Z,9.903225806451623
2023-04-15T01:36:25.000Z,9.903225806451623
2023-04-15T01:37:27.000Z,9.903225806451623
2023-04-15T01:38:29.000Z,9.903225806451623
2023-04-15T01:39:32.000Z,9.903225806451623
2023-04-15T01:40:34.000Z,9.903225806451623
2023-04-15T01:41:36.000Z,9.903225806451623
2023-04-15T01:42:39.000Z,10.00000000000001
2023-04-15T01:43:41.000Z,10.096774193548399
2023-04-15T01:44:44.000Z,10.096774193548399
2023-04-15T01:45:46.000Z,10.096774193548399
2023-04-15T01:46:49.000Z,10.096774193548399
2023-04-15T01:47:51.000Z,10.096774193548399
2023-04-15T01:48:53.000Z,10.193548387096786
2023-04-15T01:49:56.000Z,10.096774193548399
2023-04-15T01:50:58.000Z,9.709677419354847
2023-04-15T01:52:01.000Z,9.806451612903235
2023-04-15T01:53:03.000Z,10.00000000000001
2023-04-15T01:54:05.000Z,10.00000000000001
2023-04-15T01:55:08.000Z,10.096774193548399
2023-04-15T01:56:10.000Z,10.096774193548399
2023-04-15T01:57:13.000Z,10.096774193548399
2023-04-15T01:58:15.000Z,10.096774193548399
2023-04-15T01:59:17.000Z,10.096774193548399
2023-04-15T02:00:20.000Z,10.193548387096786
2023-04-15T02:01:22.000Z,10.193548387096786
2023-04-15T02:02:25.000Z,10.193548387096786
2023-04-15T02:03:27.000Z,10.290322580645174
2023-04-15T02:04:29.000Z,10.290322580645174
2023-04-15T02:05:32.000Z,10.290322580645174
2023-04-15T02:06:34.000Z,10.290322580645174
2023-04-15T02:07:37.000Z,10.290322580645174
2023-04-15T02:08:39.000Z,10.387096774193562
2023-04-15T02:09:42.000Z,10.290322580645174
2023-04-15T02:10:44.000Z,10.48387096774195
2023-04-15T02:11:46.000Z,10.48387096774195
2023-04-15T02:12:49.000Z,10.48387096774195
2023-04-15T02:13:51.000Z,10.48387096774195
2023-04-15T02:14:54.000Z,10.387096774193562
2023-04-15T02:15:56.000Z,10.677419354838726
2023-04-15T02:16:58.000Z,10.580645161290338
2023-04-15T02:18:01.000Z,10.48387096774195
2023-04-15T02:19:03.000Z,10.580645161290338
2023-04-15T02:20:06.000Z,10.580645161290338
2023-04-15T02:21:08.000Z,10.580645161290338
2023-04-15T02:22:11.000Z,10.677419354838726
2023-04-15T02:23:13.000Z,10.677419354838726
2023-04-15T02:24:15.000Z,10.677419354838726
2023-04-15T02:25:18.000Z,10.774193548387114
2023-04-15T02:26:20.000Z,10.774193548387114
2023-04-15T02:27:23.000Z,10.774193548387114
2023-04-15T02:28:25.000Z,10.870967741935502
2023-04-15T02:29:27.000Z,10.870967741935502
2023-04-15T02:30:30.000Z,10.96774193548389
2023-04-15T02:31:32.000Z,11.064516129032278
2023-04-15T02:32:35.000Z,11.161290322580665
2023-04-15T02:33:37.000Z,11.258064516129053
2023-04-15T02:34:39.000Z,11.45161290322583
2023-04-15T02:35:42.000Z,10.48387096774195
2023-04-15T02:36:44.000Z,10.48387096774195
2023-04-15T02:37:47.000Z,10.870967741935502
2023-04-15T02:38:49.000Z,9.322580645161295
2023-04-15T02:39:51.000Z,9.322580645161295
2023-04-15T02:40:54.000Z,10.387096774193562
2023-04-15T02:41:56.000Z,8.838709677419356
2023-04-15T02:42:58.000Z,8.64516129032258
2023-04-15T02:44:01.000Z,8.354838709677416
2023-04-15T02:45:03.000Z,8.354838709677416
2023-04-15T02:46:06.000Z,8.16129032258064
2023-04-15T02:47:08.000Z,8.258064516129028
2023-04-15T02:48:10.000Z,8.258064516129028
2023-04-15T02:49:13.000Z,8.258064516129028
2023-04-15T02:50:15.000Z,8.258064516129028
2023-04-15T02:51:17.000Z,8.258064516129028
2023-04-15T02:52:20.000Z,8.258064516129028
2023-04-15T02:53:22.000Z,8.354838709677416
2023-04-15T02:54:25.000Z,8.354838709677416
2023-04-15T02:55:27.000Z,8.354838709677416
2023-04-15T02:56:29.000Z,8.451612903225804
2023-04-15T02:57:32.000Z,8.451612903225804
2023-04-15T02:58:34.000Z,8.451612903225804
2023-04-15T02:59:37.000Z,8.548387096774192
2023-04-15T03:00:39.000Z,8.64516129032258
2023-04-15T03:01:41.000Z,8.548387096774192
2023-04-15T03:02:44.000Z,8.64516129032258
2023-04-15T03:03:46.000Z,8.741935483870968
2023-04-15T03:04:48.000Z,9.322580645161295
2023-04-15T03:05:51.000Z,10.48387096774195
2023-04-15T03:06:53.000Z,10.290322580645174
2023-04-15T03:07:55.000Z,10.290322580645174
2023-04-15T03:09:03.000Z,10.387096774193562
2023-04-15T03:10:05.000Z,10.387096774193562
2023-04-15T03:11:08.000Z,10.387096774193562
2023-04-15T03:12:10.000Z,10.48387096774195
2023-04-15T03:13:12.000Z,10.48387096774195
2023-04-15T03:14:15.000Z,10.580645161290338
2023-04-15T03:15:17.000Z,10.774193548387114
2023-04-15T03:16:19.000Z,10.870967741935502
2023-04-15T03:17:22.000Z,11.064516129032278
2023-04-15T03:18:24.000Z,8.935483870967744
2023-04-15T03:19:27.000Z,8.838709677419356
2023-04-15T03:20:29.000Z,8.64516129032258
2023-04-15T03:21:31.000Z,8.64516129032258
2023-04-15T03:22:39.000Z,9.225806451612907
2023-04-15T03:23:41.000Z,8.258064516129028
2023-04-15T03:24:44.000Z,8.838709677419356
2023-04-15T03:25:46.000Z,8.548387096774192
2023-04-15T03:26:48.000Z,8.935483870967744
2023-04-15T03:27:51.000Z,9.12903225806452
2023-04-15T03:28:53.000Z,9.709677419354847
2023-04-15T03:29:56.000Z,8.935483870967744
2023-04-15T03:30:58.000Z,8.64516129032258
2023-04-15T03:32:00.000Z,8.354838709677416
2023-04-15T03:33:03.000Z,8.16129032258064
2023-04-15T03:34:05.000Z,8.16129032258064
2023-04-15T03:35:07.000Z,8.064516129032253
2023-04-15T03:36:10.000Z,7.967741935483865
2023-04-15T03:37:12.000Z,7.870967741935478
2023-04-15T03:38:15.000Z,7.967741935483865
2023-04-15T03:39:17.000Z,7.870967741935478
2023-04-15T03:40:20.000Z,7.870967741935478
2023-04-15T03:41:22.000Z,7.870967741935478
2023-04-15T03:42:24.000Z,7.870967741935478
2023-04-15T03:43:27.000Z,7.870967741935478
2023-04-15T03:44:29.000Z,7.870967741935478
2023-04-15T03:45:31.000Z,7.870967741935478
2023-04-15T03:46:35.000Z,7.870967741935478
2023-04-15T03:47:37.000Z,7.870967741935478
2023-04-15T03:48:40.000Z,7.870967741935478
2023-04-15T03:49:42.000Z,7.870967741935478
2023-04-15T03:50:45.000Z,7.870967741935478
2023-04-15T03:51:47.000Z,7.870967741935478
2023-04-15T03:52:49.000Z,7.870967741935478
2023-04-15T03:53:52.000Z,7.967741935483865
2023-04-15T03:54:54.000Z,7.870967741935478
2023-04-15T03:55:56.000Z,8.16129032258064
2023-04-15T03:56:59.000Z,8.258064516129028
2023-04-15T03:58:01.000Z,8.354838709677416
2023-04-15T03:59:04.000Z,8.354838709677416
2023-04-15T04:00:06.000Z,8.354838709677416
2023-04-15T04:01:08.000Z,8.451612903225804
2023-04-15T04:02:11.000Z,8.548387096774192
2023-04-15T04:03:13.000Z,7.387096774193543
2023-04-15T04:04:16.000Z,7.096774193548382
2023-04-15T04:05:18.000Z,7.193548387096769
2023-04-15T04:06:21.000Z,7.096774193548382
2023-04-15T04:07:23.000Z,7.096774193548382
2023-04-15T04:08:25.000Z,7.193548387096769
2023-04-15T04:09:28.000Z,7.096774193548382
2023-04-15T04:10:30.000Z,7.193548387096769
2023-04-15T04:11:33.000Z,7.096774193548382
2023-04-15T04:12:35.000Z,7.193548387096769
2023-04-15T04:13:37.000Z,7.193548387096769
2023-04-15T04:14:40.000Z,7.193548387096769
2023-04-15T04:15:42.000Z,7.290322580645156
2023-04-15T04:16:44.000Z,7.290322580645156
2023-04-15T04:17:47.000Z,7.290322580645156
2023-04-15T04:18:49.000Z,7.290322580645156
2023-04-15T04:19:52.000Z,7.290322580645156
2023-04-15T04:20:54.000Z,7.387096774193543
2023-04-15T04:21:56.000Z,7.290322580645156
2023-04-15T04:22:59.000Z,7.387096774193543
2023-04-15T04:24:01.000Z,7.387096774193543
2023-04-15T04:25:03.000Z,7.48387096774193
2023-04-15T04:26:06.000Z,7.48387096774193
2023-04-15T04:27:08.000Z,7.48387096774193
2023-04-15T04:28:11.000Z,7.48387096774193
2023-04-15T04:29:13.000Z,7.580645161290317
2023-04-15T04:30:15.000Z,7.580645161290317
2023-04-15T04:31:18.000Z,7.677419354838704
2023-04-15T04:32:20.000Z,7.677419354838704
2023-04-15T04:33:23.000Z,7.677419354838704
2023-04-15T04:34:25.000Z,7.774193548387091
2023-04-15T04:35:27.000Z,7.774193548387091
2023-04-15T04:36:30.000Z,7.870967741935478
2023-04-15T04:37:32.000Z,7.870967741935478
2023-04-15T04:38:35.000Z,7.967741935483865
2023-04-15T04:39:37.000Z,8.064516129032253
2023-04-15T04:40:40.000Z,8.16129032258064
2023-04-15T04:41:42.000Z,8.258064516129028
2023-04-15T04:42:44.000Z,8.451612903225804
2023-04-15T04:43:47.000Z,8.935483870967744
2023-04-15T04:44:49.000Z,7.870967741935478
2023-04-15T04:45:52.000Z,7.774193548387091
2023-04-15T04:46:54.000Z,9.032258064516132
2023-04-15T04:47:56.000Z,8.258064516129028
2023-04-15T04:48:59.000Z,8.064516129032253
2023-04-15T04:50:01.000Z,8.16129032258064
2023-04-15T04:51:03.000Z,8.16129032258064
2023-04-15T04:52:06.000Z,8.16129032258064
2023-04-15T04:53:08.000Z,8.16129032258064
2023-04-15T04:54:11.000Z,8.064516129032253
2023-04-15T04:55:13.000Z,8.258064516129028
2023-04-15T04:56:15.000Z,8.354838709677416
2023-04-15T04:57:18.000Z,8.451612903225804
2023-04-15T04:58:20.000Z,8.451612903225804
2023-04-15T04:59:22.000Z,8.451612903225804
2023-04-15T05:00:25.000Z,8.451612903225804
2023-04-15T05:01:27.000Z,8.451612903225804
2023-04-15T05:02:29.000Z,8.451612903225804
2023-04-15T05:03:32.000Z,8.548387096774192
2023-04-15T05:04:34.000Z,8.451612903225804
2023-04-15T05:05:37.000Z,8.451612903225804
2023-04-15T05:06:39.000Z,8.354838709677416
2023-04-15T05:07:41.000Z,8.258064516129028
2023-04-15T05:08:44.000Z,8.16129032258064
2023-04-15T05:09:46.000Z,8.16129032258064
2023-04-15T05:10:48.000Z,8.16129032258064
2023-04-15T05:11:51.000Z,8.16129032258064
2023-04-15T05:12:53.000Z,8.064516129032253
2023-04-15T05:13:56.000Z,8.064516129032253
2023-04-15T05:14:58.000Z,8.064516129032253
2023-04-15T05:16:00.000Z,8.064516129032253
2023-04-15T05:17:03.000Z,8.064516129032253
2023-04-15T05:18:05.000Z,8.064516129032253
2023-04-15T05:19:08.000Z,8.16129032258064
2023-04-15T05:20:10.000Z,8.354838709677416
2023-04-15T05:21:12.000Z,8.64516129032258
2023-04-15T05:22:14.000Z,9.12903225806452
2023-04-15T05:23:17.000Z,9.225806451612907
2023-04-15T05:24:19.000Z,10.870967741935502
2023-04-15T05:25:22.000Z,9.032258064516132
2023-04-15T05:26:24.000Z,8.64516129032258
2023-04-15T05:27:26.000Z,8.838709677419356
2023-04-15T05:28:29.000Z,9.032258064516132
2023-04-15T05:29:31.000Z,9.12903225806452
2023-04-15T05:30:34.000Z,9.12903225806452
2023-04-15T05:31:36.000Z,9.322580645161295
2023-04-15T05:32:39.000Z,9.419354838709683
2023-04-15T05:33:41.000Z,10.387096774193562
2023-04-15T05:34:44.000Z,8.741935483870968
2023-04-15T05:35:46.000Z,8.451612903225804
2023-04-15T05:36:49.000Z,8.451612903225804
2023-04-15T05:37:51.000Z,8.354838709677416
2023-04-15T05:38:59.000Z,8.258064516129028
2023-04-15T05:40:01.000Z,8.258064516129028
2023-04-15T05:41:03.000Z,8.258064516129028
2023-04-15T05:42:06.000Z,8.16129032258064
2023-04-15T05:43:08.000Z,8.16129032258064
2023-04-15T05:44:11.000Z,8.064516129032253
2023-04-15T05:45:13.000Z,7.967741935483865
2023-04-15T05:46:16.000Z,7.967741935483865
2023-04-15T05:47:18.000Z,7.967741935483865
2023-04-15T05:48:20.000Z,7.870967741935478
2023-04-15T05:49:23.000Z,7.870967741935478
2023-04-15T05:50:25.000Z,7.870967741935478
2023-04-15T05:51:27.000Z,7.870967741935478
2023-04-15T05:52:30.000Z,7.967741935483865
2023-04-15T05:53:32.000Z,7.870967741935478
2023-04-15T05:54:35.000Z,7.870967741935478
2023-04-15T05:55:37.000Z,7.774193548387091
2023-04-15T05:56:39.000Z,7.870967741935478
2023-04-15T05:57:42.000Z,7.870967741935478
2023-04-15T05:58:44.000Z,7.774193548387091
2023-04-15T05:59:46.000Z,7.870967741935478
2023-04-15T06:00:49.000Z,7.774193548387091
2023-04-15T06:01:51.000Z,7.774193548387091
2023-04-15T06:02:54.000Z,7.774193548387091
2023-04-15T06:03:56.000Z,7.774193548387091
2023-04-15T06:04:58.000Z,7.870967741935478
2023-04-15T06:06:01.000Z,7.870967741935478
2023-04-15T06:07:03.000Z,7.870967741935478
2023-04-15T06:08:06.000Z,7.870967741935478
2023-04-15T06:09:08.000Z,7.870967741935478
2023-04-15T06:10:10.000Z,7.870967741935478
2023-04-15T06:11:13.000Z,7.870967741935478
2023-04-15T06:12:15.000Z,7.870967741935478
2023-04-15T06:13:17.000Z,7.870967741935478
2023-04-15T06:14:20.000Z,7.870967741935478
2023-04-15T06:15:22.000Z,7.870967741935478
2023-04-15T06:16:24.000Z,7.774193548387091
2023-04-15T06:17:27.000Z,7.870967741935478
2023-04-15T06:18:29.000Z,7.870967741935478
2023-04-15T06:19:32.000Z,7.870967741935478
2023-04-15T06:20:34.000Z,7.870967741935478
2023-04-15T06:21:36.000Z,7.774193548387091
2023-04-15T06:22:39.000Z,7.774193548387091
2023-04-15T06:23:41.000Z,7.774193548387091
2023-04-15T06:24:43.000Z,7.774193548387091
2023-04-15T06:25:46.000Z,7.677419354838704
2023-04-15T06:26:48.000Z,7.677419354838704
2023-04-15T06:27:51.000Z,7.677419354838704
2023-04-15T06:28:53.000Z,7.677419354838704
2023-04-15T06:29:55.000Z,7.677419354838704
2023-04-15T06:30:58.000Z,7.677419354838704
2023-04-15T06:32:00.000Z,7.677419354838704
2023-04-15T06:33:03.000Z,7.677419354838704
2023-04-15T06:34:05.000Z,7.677419354838704
2023-04-15T06:35:07.000Z,7.677419354838704
2023-04-15T06:36:10.000Z,7.677419354838704
2023-04-15T06:37:12.000Z,7.580645161290317
2023-04-15T06:38:15.000Z,7.580645161290317
2023-04-15T06:39:17.000Z,7.677419354838704
2023-04-15T06:40:19.000Z,7.677419354838704
2023-04-15T06:41:22.000Z,7.580645161290317
2023-04-15T06:42:24.000Z,7.677419354838704
2023-04-15T06:43:26.000Z,7.580645161290317
2023-04-15T06:44:29.000Z,7.677419354838704
2023-04-15T06:45:31.000Z,7.580645161290317
2023-04-15T06:46:33.000Z,7.580645161290317
2023-04-15T06:47:36.000Z,7.677419354838704
2023-04-15T06:48:38.000Z,7.677419354838704
2023-04-15T06:49:40.000Z,7.580645161290317
2023-04-15T06:50:43.000Z,7.580645161290317
2023-04-15T06:51:45.000Z,7.677419354838704
2023-04-15T06:52:48.000Z,7.677419354838704
2023-04-15T06:53:50.000Z,7.677419354838704
2023-04-15T06:54:53.000Z,7.677419354838704
2023-04-15T06:55:55.000Z,7.580645161290317
2023-04-15T06:56:57.000Z,7.677419354838704
2023-04-15T06:58:00.000Z,7.580645161290317
2023-04-15T06:59:02.000Z,7.580645161290317
2023-04-15T07:00:05.000Z,7.580645161290317
2023-04-15T07:01:12.000Z,7.580645161290317
2023-04-15T07:02:14.000Z,7.580645161290317
2023-04-15T07:03:17.000Z,7.580645161290317
2023-04-15T07:04:19.000Z,7.580645161290317
2023-04-15T07:05:21.000Z,7.580645161290317
2023-04-15T07:06:24.000Z,7.580645161290317
2023-04-15T07:07:26.000Z,7.580645161290317
2023-04-15T07:08:29.000Z,7.580645161290317
2023-04-15T07:09:31.000Z,7.580645161290317
2023-04-15T07:10:33.000Z,7.580645161290317
2023-04-15T07:11:36.000Z,7.580645161290317
2023-04-15T07:12:38.000Z,7.580645161290317
2023-04-15T07:13:41.000Z,7.580645161290317
2023-04-15T07:14:43.000Z,7.580645161290317
2023-04-15T07:15:46.000Z,7.580645161290317
2023-04-15T07:16:48.000Z,7.580645161290317
2023-04-15T07:17:50.000Z,7.580645161290317
2023-04-15T07:18:53.000Z,7.48387096774193
2023-04-15T07:19:55.000Z,7.580645161290317
2023-04-15T07:20:58.000Z,7.580645161290317
2023-04-15T07:22:00.000Z,7.580645161290317
2023-04-15T07:23:03.000Z,7.580645161290317
2023-04-15T07:24:05.000Z,7.580645161290317
2023-04-15T07:25:07.000Z,7.580645161290317
2023-04-15T07:26:10.000Z,7.580645161290317
2023-04-15T07:27:12.000Z,7.580645161290317
2023-04-15T07:28:15.000Z,7.580645161290317
2023-04-15T07:29:17.000Z,7.580645161290317
2023-04-15T07:30:19.000Z,7.48387096774193
2023-04-15T07:31:22.000Z,7.580645161290317
2023-04-15T07:32:29.000Z,7.580645161290317
2023-04-15T07:33:32.000Z,7.580645161290317
2023-04-15T07:34:34.000Z,7.580645161290317
2023-04-15T07:35:36.000Z,7.580645161290317
2023-04-15T07:36:39.000Z,7.580645161290317
2023-04-15T07:37:41.000Z,7.580645161290317
2023-04-15T07:38:44.000Z,7.580645161290317
2023-04-15T07:39:46.000Z,7.580645161290317
2023-04-15T07:40:48.000Z,7.48387096774193
2023-04-15T07:41:51.000Z,7.580645161290317
2023-04-15T07:42:53.000Z,7.580645161290317
2023-04-15T07:43:56.000Z,7.48387096774193
2023-04-15T07:44:58.000Z,7.580645161290317
2023-04-15T07:46:00.000Z,7.48387096774193
2023-04-15T07:47:03.000Z,7.580645161290317
2023-04-15T07:48:05.000Z,7.580645161290317
2023-04-15T07:49:08.000Z,7.48387096774193
2023-04-15T07:50:10.000Z,7.48387096774193
2023-04-15T07:51:13.000Z,7.48387096774193
2023-04-15T07:52:15.000Z,7.48387096774193
2023-04-15T07:53:17.000Z,7.48387096774193
2023-04-15T07:54:20.000Z,7.48387096774193
2023-04-15T07:55:22.000Z,7.48387096774193
2023-04-15T07:56:24.000Z,7.48387096774193
2023-04-15T07:57:27.000Z,7.48387096774193
2023-04-15T07:58:29.000Z,7.48387096774193
2023-04-15T07:59:32.000Z,7.48387096774193
2023-04-15T08:00:34.000Z,7.48387096774193
2023-04-15T08:01:36.000Z,7.48387096774193
2023-04-15T08:02:39.000Z,7.48387096774193
2023-04-15T08:03:41.000Z,7.48387096774193
2023-04-15T08:04:43.000Z,7.48387096774193
2023-04-15T08:05:46.000Z,7.48387096774193
2023-04-15T08:06:48.000Z,7.48387096774193
2023-04-15T08:07:51.000Z,7.48387096774193
2023-04-15T08:08:53.000Z,7.48387096774193
2023-04-15T08:09:55.000Z,7.387096774193543
2023-04-15T08:10:58.000Z,7.48387096774193
2023-04-15T08:12:01.000Z,7.48387096774193
2023-04-15T08:13:03.000Z,7.387096774193543
2023-04-15T08:14:05.000Z,7.387096774193543
2023-04-15T08:15:08.000Z,7.387096774193543
2023-04-15T08:16:10.000Z,7.387096774193543
2023-04-15T08:17:13.000Z,7.48387096774193
2023-04-15T08:18:15.000Z,7.387096774193543
2023-04-15T08:19:18.000Z,7.387096774193543
2023-04-15T08:20:20.000Z,7.387096774193543
2023-04-15T08:21:23.000Z,7.387096774193543
2023-04-15T08:22:25.000Z,7.387096774193543
2023-04-15T08:23:27.000Z,7.387096774193543
2023-04-15T08:24:30.000Z,7.387096774193543
2023-04-15T08:25:32.000Z,7.387096774193543
2023-04-15T08:26:34.000Z,7.387096774193543
2023-04-15T08:27:37.000Z,7.48387096774193
2023-04-15T08:28:39.000Z,7.387096774193543
2023-04-15T08:29:42.000Z,7.48387096774193
2023-04-15T08:30:44.000Z,7.48387096774193
2023-04-15T08:31:46.000Z,7.48387096774193
2023-04-15T08:32:49.000Z,7.48387096774193
2023-04-15T08:33:51.000Z,7.387096774193543
2023-04-15T08:34:53.000Z,7.48387096774193
2023-04-15T08:35:56.000Z,7.48387096774193
2023-04-15T08:36:58.000Z,7.48387096774193
2023-04-15T08:38:01.000Z,7.48387096774193
2023-04-15T08:39:03.000Z,7.48387096774193
2023-04-15T08:40:06.000Z,7.48387096774193
2023-04-15T08:41:08.000Z,7.48387096774193
2023-04-15T08:42:10.000Z,7.48387096774193
2023-04-15T08:43:13.000Z,7.580645161290317
2023-04-15T08:44:15.000Z,7.48387096774193
2023-04-15T08:45:18.000Z,7.48387096774193
2023-04-15T08:46:20.000Z,7.580645161290317
2023-04-15T08:47:23.000Z,7.48387096774193
2023-04-15T08:48:25.000Z,7.580645161290317
2023-04-15T08:49:28.000Z,7.48387096774193
2023-04-15T08:50:30.000Z,7.48387096774193
2023-04-15T08:51:32.000Z,7.48387096774193
2023-04-15T08:52:35.000Z,7.48387096774193
2023-04-15T08:53:37.000Z,7.580645161290317
2023-04-15T08:54:40.000Z,7.48387096774193
2023-04-15T08:55:42.000Z,7.580645161290317
2023-04-15T08:56:45.000Z,7.580645161290317
2023-04-15T08:57:47.000Z,7.580645161290317
2023-04-15T08:58:50.000Z,7.580645161290317
2023-04-15T08:59:52.000Z,7.580645161290317
2023-04-15T09:00:55.000Z,7.48387096774193
2023-04-15T09:01:57.000Z,7.580645161290317
2023-04-15T09:03:00.000Z,7.580645161290317
2023-04-15T09:04:02.000Z,7.580645161290317
2023-04-15T09:05:04.000Z,7.580645161290317
2023-04-15T09:06:07.000Z,7.580645161290317
2023-04-15T09:07:09.000Z,7.580645161290317
2023-04-15T09:08:12.000Z,7.580645161290317
2023-04-15T09:09:14.000Z,7.580645161290317
2023-04-15T09:10:16.000Z,7.580645161290317
2023-04-15T09:11:19.000Z,7.48387096774193
2023-04-15T09:12:21.000Z,7.48387096774193
2023-04-15T09:13:24.000Z,7.580645161290317
2023-04-15T09:14:26.000Z,7.48387096774193
2023-04-15T09:15:29.000Z,7.580645161290317
2023-04-15T09:16:31.000Z,7.48387096774193
2023-04-15T09:17:33.000Z,7.48387096774193
2023-04-15T09:18:36.000Z,7.48387096774193
2023-04-15T09:19:38.000Z,7.580645161290317
2023-04-15T09:20:41.000Z,7.48387096774193
2023-04-15T09:21:43.000Z,7.580645161290317
2023-04-15T09:22:45.000Z,7.48387096774193
2023-04-15T09:23:48.000Z,7.580645161290317
2023-04-15T09:24:50.000Z,7.580645161290317
2023-04-15T09:25:53.000Z,7.580645161290317
2023-04-15T09:26:55.000Z,7.48387096774193
2023-04-15T09:27:58.000Z,7.48387096774193
2023-04-15T09:29:00.000Z,7.48387096774193
2023-04-15T09:30:03.000Z,7.48387096774193
2023-04-15T09:31:05.000Z,7.48387096774193
2023-04-15T09:32:07.000Z,7.48387096774193
2023-04-15T09:33:10.000Z,7.48387096774193
2023-04-15T09:34:12.000Z,7.580645161290317
2023-04-15T09:35:15.000Z,7.48387096774193
2023-04-15T09:36:17.000Z,7.48387096774193
2023-04-15T09:37:19.000Z,7.580645161290317
2023-04-15T09:38:22.000Z,7.48387096774193
2023-04-15T09:39:24.000Z,7.48387096774193
2023-04-15T09:40:27.000Z,7.48387096774193
2023-04-15T09:41:29.000Z,7.48387096774193